createdAt,value
2017-06-19T00:00:37.172Z,20.43
2017-06-19T00:01:37.750Z,20.28
2017-06-19T00:02:38.329Z,20.31
2017-06-19T00:03:38.907Z,20.07
2017-06-19T00:04:39.484Z,20.10
2017-06-19T00:05:40.063Z,20.24
2017-06-19T00:06:40.643Z,19.88
2017-06-19T00:07:41.219Z,20.21
2017-06-19T00:08:41.797Z,20.09
2017-06-19T00:09:42.378Z,20.14
2017-06-19T00:10:42.954Z,20.06
2017-06-19T00:11:43.532Z,20.28
2017-06-19T00:12:44.109Z,20.31
2017-06-19T00:13:44.699Z,20.31
2017-06-19T00:14:45.281Z,20.22
2017-06-19T00:15:45.858Z,20.11
2017-06-19T00:16:46.437Z,20.28
2017-06-19T00:17:47.015Z,20.26
2017-06-19T00:18:47.595Z,20.18
2017-06-19T00:19:48.174Z,20.19
2017-06-19T00:20:48.752Z,20.18
2017-06-19T00:21:49.333Z,20.10
2017-06-19T00:22:49.909Z,20.28
2017-06-19T00:23:50.486Z,20.13
2017-06-19T00:24:51.064Z,20.22
2017-06-19T00:25:51.642Z,20.26
2017-06-19T00:26:52.220Z,20.28
2017-06-19T00:27:52.798Z,20.28
2017-06-19T00:28:53.375Z,20.28
2017-06-19T00:29:53.953Z,20.18
2017-06-19T00:30:54.531Z,20.18
2017-06-19T00:31:55.109Z,20.11
2017-06-19T00:32:55.687Z,20.03
2017-06-19T00:33:56.263Z,20.07
2017-06-19T00:34:56.842Z,20.06
2017-06-19T00:35:57.432Z,20.06
2017-06-19T00:36:58.011Z,20.00
2017-06-19T00:37:58.591Z,19.82
2017-06-19T00:38:59.169Z,19.77
2017-06-19T00:39:59.749Z,19.94
2017-06-19T00:41:00.327Z,19.99
2017-06-19T00:42:00.906Z,19.88
2017-06-19T00:43:01.486Z,19.99
2017-06-19T00:44:02.063Z,19.91
2017-06-19T00:45:02.641Z,19.89
2017-06-19T00:46:03.219Z,19.94
2017-06-19T00:47:03.796Z,19.94
2017-06-19T00:48:04.375Z,19.89
2017-06-19T00:49:04.951Z,19.99
2017-06-19T00:50:05.530Z,19.96
2017-06-19T00:51:06.107Z,19.89
2017-06-19T00:52:06.685Z,19.86
2017-06-19T00:53:07.263Z,19.86
2017-06-19T00:54:07.841Z,19.92
2017-06-19T00:55:08.419Z,19.86
2017-06-19T00:56:08.996Z,19.73
2017-06-19T00:57:09.575Z,19.86
2017-06-19T00:58:10.155Z,19.70
2017-06-19T00:59:10.729Z,19.89
2017-06-19T01:00:11.320Z,19.82
2017-06-19T01:01:11.901Z,20.04
2017-06-19T01:02:12.478Z,19.88
2017-06-19T01:03:13.058Z,19.67
2017-06-19T01:04:13.650Z,19.71
2017-06-19T01:05:14.228Z,19.58
2017-06-19T01:06:14.808Z,19.59
2017-06-19T01:07:15.388Z,19.63
2017-06-19T01:08:15.966Z,19.69
2017-06-19T01:09:16.544Z,19.63
2017-06-19T01:10:17.123Z,19.54
2017-06-19T01:11:17.700Z,19.66
2017-06-19T01:12:18.279Z,19.69
2017-06-19T01:13:18.869Z,19.63
2017-06-19T01:14:19.448Z,19.88
2017-06-19T01:15:20.028Z,19.88
2017-06-19T01:16:20.605Z,19.73
2017-06-19T01:17:21.185Z,19.67
2017-06-19T01:18:21.762Z,19.76
2017-06-19T01:19:22.343Z,19.59
2017-06-19T01:20:22.921Z,19.54
2017-06-19T01:21:23.499Z,19.59
2017-06-19T01:22:24.082Z,19.55
2017-06-19T01:23:24.655Z,19.47
2017-06-19T01:24:25.234Z,19.44
2017-06-19T01:25:25.811Z,19.64
2017-06-19T01:26:26.389Z,19.49
2017-06-19T01:27:26.979Z,19.49
2017-06-19T01:28:27.559Z,19.47
2017-06-19T01:29:28.138Z,19.29
2017-06-19T01:30:28.716Z,19.19
2017-06-19T01:31:29.294Z,19.27
2017-06-19T01:32:29.873Z,19.36
2017-06-19T01:33:30.451Z,19.51
2017-06-19T01:34:31.030Z,19.48
2017-06-19T01:35:31.609Z,19.55
2017-06-19T01:36:32.188Z,19.54
2017-06-19T01:37:32.764Z,19.41
2017-06-19T01:38:33.355Z,19.40
2017-06-19T01:39:33.933Z,19.44
2017-06-19T01:40:34.510Z,19.40
2017-06-19T01:41:35.091Z,19.54
2017-06-19T01:42:35.670Z,19.64
2017-06-19T01:43:36.247Z,19.48
2017-06-19T01:44:36.825Z,19.37
2017-06-19T01:45:37.404Z,19.37
2017-06-19T01:46:37.982Z,19.15
2017-06-19T01:47:38.561Z,18.86
2017-06-19T01:48:39.138Z,18.93
2017-06-19T01:49:39.716Z,18.89
2017-06-19T01:50:40.293Z,19.09
2017-06-19T01:51:40.871Z,19.11
2017-06-19T01:52:41.448Z,19.08
2017-06-19T01:53:42.027Z,18.90
2017-06-19T01:54:42.604Z,19.08
2017-06-19T01:55:43.188Z,18.98
2017-06-19T01:56:43.760Z,18.95
2017-06-19T01:57:44.337Z,18.78
2017-06-19T01:58:44.914Z,18.88
2017-06-19T01:59:45.492Z,18.73
2017-06-19T02:00:46.069Z,18.71
2017-06-19T02:01:46.646Z,18.81
2017-06-19T02:02:47.223Z,18.96
2017-06-19T02:03:47.801Z,19.04
2017-06-19T02:04:48.378Z,18.78
2017-06-19T02:05:48.955Z,18.86
2017-06-19T02:06:49.533Z,18.83
2017-06-19T02:07:50.110Z,18.75
2017-06-19T02:08:50.689Z,18.88
2017-06-19T02:09:51.267Z,19.02
2017-06-19T02:10:51.847Z,19.15
2017-06-19T02:11:52.425Z,19.08
2017-06-19T02:12:53.004Z,18.95
2017-06-19T02:13:53.582Z,18.88
2017-06-19T02:14:54.161Z,18.88
2017-06-19T02:15:54.738Z,18.81
2017-06-19T02:16:55.317Z,18.92
2017-06-19T02:17:55.894Z,18.90
2017-06-19T02:18:56.472Z,18.95
2017-06-19T02:19:57.049Z,18.90
2017-06-19T02:20:57.628Z,19.07
2017-06-19T02:21:58.205Z,19.07
2017-06-19T02:22:58.783Z,19.07
2017-06-19T02:23:59.361Z,18.99
2017-06-19T02:24:59.938Z,19.00
2017-06-19T02:26:00.519Z,18.86
2017-06-19T02:27:01.104Z,18.88
2017-06-19T02:28:01.687Z,19.07
2017-06-19T02:29:02.262Z,19.16
2017-06-19T02:30:02.843Z,19.02
2017-06-19T02:31:03.421Z,18.92
2017-06-19T02:32:03.999Z,18.74
2017-06-19T02:33:04.576Z,18.78
2017-06-19T02:34:05.153Z,18.71
2017-06-19T02:35:05.731Z,18.80
2017-06-19T02:36:06.309Z,18.78
2017-06-19T02:37:06.886Z,18.88
2017-06-19T02:38:07.464Z,18.73
2017-06-19T02:39:08.041Z,18.83
2017-06-19T02:40:08.630Z,18.73
2017-06-19T02:41:09.209Z,18.77
2017-06-19T02:42:09.787Z,18.62
2017-06-19T02:43:10.367Z,18.74
2017-06-19T02:44:10.943Z,18.56
2017-06-19T02:45:11.522Z,18.44
2017-06-19T02:46:12.099Z,18.34
2017-06-19T02:47:12.677Z,18.34
2017-06-19T02:48:13.255Z,18.45
2017-06-19T02:49:13.832Z,18.53
2017-06-19T02:50:14.409Z,18.59
2017-06-19T02:51:14.987Z,18.60
2017-06-19T02:52:15.564Z,18.62
2017-06-19T02:53:16.141Z,18.50
2017-06-19T02:54:16.718Z,18.47
2017-06-19T02:55:17.295Z,18.52
2017-06-19T02:56:17.872Z,18.37
2017-06-19T02:57:18.450Z,18.41
2017-06-19T02:58:19.026Z,18.49
2017-06-19T02:59:19.604Z,18.38
2017-06-19T03:00:20.181Z,18.55
2017-06-19T03:01:20.759Z,18.49
2017-06-19T03:02:21.336Z,18.50
2017-06-19T03:03:21.913Z,18.49
2017-06-19T03:04:22.492Z,18.45
2017-06-19T03:05:23.083Z,18.35
2017-06-19T03:06:23.674Z,18.34
2017-06-19T03:07:24.254Z,18.25
2017-06-19T03:08:24.832Z,18.38
2017-06-19T03:09:25.413Z,18.13
2017-06-19T03:10:25.989Z,17.97
2017-06-19T03:11:26.569Z,18.11
2017-06-19T03:12:27.149Z,18.22
2017-06-19T03:13:27.724Z,18.26
2017-06-19T03:14:28.302Z,18.19
2017-06-19T03:15:28.880Z,18.25
2017-06-19T03:16:29.458Z,18.29
2017-06-19T03:17:30.039Z,18.37
2017-06-19T03:18:30.619Z,18.33
2017-06-19T03:19:31.196Z,17.97
2017-06-19T03:20:31.779Z,18.16
2017-06-19T03:21:32.356Z,18.11
2017-06-19T03:22:32.934Z,18.10
2017-06-19T03:23:33.511Z,18.11
2017-06-19T03:24:34.090Z,18.11
2017-06-19T03:25:34.668Z,18.22
2017-06-19T03:26:35.246Z,18.29
2017-06-19T03:27:35.827Z,18.08
2017-06-19T03:28:36.406Z,18.16
2017-06-19T03:29:36.987Z,18.20
2017-06-19T03:30:37.578Z,18.11
2017-06-19T03:31:38.157Z,18.20
2017-06-19T03:32:38.735Z,18.22
2017-06-19T03:33:39.314Z,18.08
2017-06-19T03:34:39.894Z,18.15
2017-06-19T03:35:40.475Z,18.34
2017-06-19T03:36:41.062Z,18.11
2017-06-19T03:37:41.642Z,17.94
2017-06-19T03:38:42.220Z,17.68
2017-06-19T03:39:42.799Z,17.67
2017-06-19T03:40:43.378Z,17.83
2017-06-19T03:41:43.957Z,17.89
2017-06-19T03:42:44.548Z,18.01
2017-06-19T03:43:45.127Z,18.15
2017-06-19T03:44:45.708Z,18.16
2017-06-19T03:45:46.287Z,18.35
2017-06-19T03:46:46.867Z,18.44
2017-06-19T03:47:47.450Z,18.45
2017-06-19T03:48:48.028Z,18.66
2017-06-19T03:49:48.609Z,18.49
2017-06-19T03:50:49.188Z,18.41
2017-06-19T03:51:49.781Z,18.35
2017-06-19T03:52:50.369Z,18.55
2017-06-19T03:53:50.951Z,18.55
2017-06-19T03:54:51.531Z,18.52
2017-06-19T03:55:52.112Z,18.60
2017-06-19T03:56:52.692Z,18.73
2017-06-19T03:57:53.270Z,18.80
2017-06-19T03:58:53.849Z,18.75
2017-06-19T03:59:54.428Z,18.84
2017-06-19T04:00:55.009Z,18.52
2017-06-19T04:01:55.591Z,18.58
2017-06-19T04:02:56.181Z,18.52
2017-06-19T04:03:56.762Z,18.38
2017-06-19T04:04:57.353Z,18.38
2017-06-19T04:05:57.946Z,18.28
2017-06-19T04:06:58.526Z,18.34
2017-06-19T04:07:59.121Z,18.26
2017-06-19T04:08:59.697Z,18.37
2017-06-19T04:10:00.276Z,18.25
2017-06-19T04:11:00.855Z,18.37
2017-06-19T04:12:01.446Z,18.34
2017-06-19T04:13:02.026Z,18.47
2017-06-19T04:14:02.606Z,18.44
2017-06-19T04:15:03.184Z,18.50
2017-06-19T04:16:03.764Z,18.38
2017-06-19T04:17:04.345Z,18.25
2017-06-19T04:18:04.927Z,18.56
2017-06-19T04:19:05.509Z,18.55
2017-06-19T04:20:06.086Z,18.74
2017-06-19T04:21:06.666Z,18.77
2017-06-19T04:22:07.247Z,18.58
2017-06-19T04:23:07.830Z,18.66
2017-06-19T04:24:08.410Z,18.53
2017-06-19T04:25:08.993Z,18.73
2017-06-19T04:26:09.586Z,18.73
2017-06-19T04:27:10.165Z,18.93
2017-06-19T04:28:10.744Z,18.99
2017-06-19T04:29:11.327Z,18.92
2017-06-19T04:30:11.907Z,18.90
2017-06-19T04:31:12.499Z,19.15
2017-06-19T04:32:13.092Z,19.21
2017-06-19T04:33:13.670Z,19.26
2017-06-19T04:34:14.250Z,19.27
2017-06-19T04:35:14.831Z,19.44
2017-06-19T04:36:15.413Z,19.33
2017-06-19T04:37:15.995Z,19.24
2017-06-19T04:38:16.575Z,19.27
2017-06-19T04:39:17.156Z,19.15
2017-06-19T04:40:17.738Z,19.44
2017-06-19T04:41:18.319Z,19.24
2017-06-19T04:42:18.901Z,19.15
2017-06-19T04:43:19.481Z,19.11
2017-06-19T04:44:20.062Z,18.92
2017-06-19T04:45:20.641Z,18.99
2017-06-19T04:46:21.224Z,19.22
2017-06-19T04:47:21.806Z,19.37
2017-06-19T04:48:22.387Z,19.59
2017-06-19T04:49:22.979Z,19.85
2017-06-19T04:50:23.561Z,19.58
2017-06-19T04:51:24.142Z,19.47
2017-06-19T04:52:24.724Z,19.48
2017-06-19T04:53:25.305Z,19.56
2017-06-19T04:54:25.887Z,19.56
2017-06-19T04:55:26.469Z,19.56
2017-06-19T04:56:27.050Z,19.74
2017-06-19T04:57:27.630Z,19.84
2017-06-19T04:58:28.212Z,19.70
2017-06-19T04:59:28.794Z,19.85
2017-06-19T05:00:29.381Z,19.89
2017-06-19T05:01:29.958Z,20.03
2017-06-19T05:02:30.538Z,19.85
2017-06-19T05:03:31.119Z,20.00
2017-06-19T05:04:31.703Z,20.09
2017-06-19T05:05:32.284Z,20.13
2017-06-19T05:06:32.878Z,20.18
2017-06-19T05:07:33.471Z,20.10
2017-06-19T05:08:34.053Z,20.22
2017-06-19T05:09:34.636Z,20.29
2017-06-19T05:10:35.217Z,20.36
2017-06-19T05:11:35.810Z,20.37
2017-06-19T05:12:36.391Z,20.31
2017-06-19T05:13:36.972Z,20.21
2017-06-19T05:14:37.555Z,20.39
2017-06-19T05:15:38.147Z,20.51
2017-06-19T05:16:38.728Z,20.43
2017-06-19T05:17:39.311Z,20.66
2017-06-19T05:18:39.893Z,20.62
2017-06-19T05:19:40.475Z,20.59
2017-06-19T05:20:41.056Z,20.58
2017-06-19T05:21:41.637Z,20.62
2017-06-19T05:22:42.220Z,20.74
2017-06-19T05:23:42.803Z,20.95
2017-06-19T05:24:43.383Z,20.93
2017-06-19T05:25:43.965Z,20.96
2017-06-19T05:26:44.546Z,21.00
2017-06-19T05:27:45.128Z,21.05
2017-06-19T05:28:45.750Z,20.99
2017-06-19T05:29:46.292Z,20.97
2017-06-19T05:30:46.874Z,21.18
2017-06-19T05:31:47.454Z,21.25
2017-06-19T05:32:48.037Z,21.36
2017-06-19T05:33:48.619Z,21.14
2017-06-19T05:34:49.200Z,21.27
2017-06-19T05:35:49.782Z,21.14
2017-06-19T05:36:50.363Z,21.25
2017-06-19T05:37:50.945Z,21.39
2017-06-19T05:38:51.528Z,21.40
2017-06-19T05:39:52.109Z,21.57
2017-06-19T05:40:52.691Z,21.72
2017-06-19T05:41:53.272Z,21.57
2017-06-19T05:42:53.854Z,21.61
2017-06-19T05:43:54.438Z,21.62
2017-06-19T05:44:55.030Z,21.69
2017-06-19T05:45:55.613Z,21.66
2017-06-19T05:46:56.196Z,21.62
2017-06-19T05:47:56.777Z,21.67
2017-06-19T05:48:57.371Z,21.70
2017-06-19T05:49:57.954Z,21.83
2017-06-19T05:50:58.536Z,22.00
2017-06-19T05:51:59.118Z,22.04
2017-06-19T05:52:59.699Z,22.07
2017-06-19T05:54:00.282Z,22.06
2017-06-19T05:55:00.865Z,22.14
2017-06-19T05:56:01.447Z,22.06
2017-06-19T05:57:02.029Z,22.10
2017-06-19T05:58:02.611Z,22.14
2017-06-19T05:59:03.204Z,22.15
2017-06-19T06:00:03.808Z,22.20
2017-06-19T06:01:04.382Z,22.02
2017-06-19T06:02:04.963Z,22.17
2017-06-19T06:03:05.545Z,22.47
2017-06-19T06:04:06.128Z,22.51
2017-06-19T06:05:06.714Z,22.48
2017-06-19T06:06:07.295Z,22.44
2017-06-19T06:07:07.876Z,22.45
2017-06-19T06:08:08.470Z,22.55
2017-06-19T06:09:09.052Z,22.57
2017-06-19T06:10:09.634Z,22.62
2017-06-19T06:11:10.216Z,22.65
2017-06-19T06:12:10.800Z,22.68
2017-06-19T06:13:11.381Z,22.83
2017-06-19T06:14:11.976Z,22.68
2017-06-19T06:15:12.560Z,22.80
2017-06-19T06:16:13.142Z,22.85
2017-06-19T06:17:13.724Z,22.96
2017-06-19T06:18:14.306Z,23.10
2017-06-19T06:19:14.901Z,23.08
2017-06-19T06:20:15.483Z,23.06
2017-06-19T06:21:16.065Z,23.05
2017-06-19T06:22:16.647Z,23.09
2017-06-19T06:23:17.232Z,23.21
2017-06-19T06:24:17.814Z,23.25
2017-06-19T06:25:18.395Z,23.13
2017-06-19T06:26:18.977Z,23.39
2017-06-19T06:27:19.565Z,23.55
2017-06-19T06:28:20.153Z,23.65
2017-06-19T06:29:20.735Z,23.63
2017-06-19T06:30:21.317Z,23.74
2017-06-19T06:31:21.902Z,23.74
2017-06-19T06:32:22.484Z,23.80
2017-06-19T06:33:23.068Z,23.74
2017-06-19T06:34:23.649Z,23.92
2017-06-19T06:35:24.231Z,23.98
2017-06-19T06:36:24.815Z,24.11
2017-06-19T06:37:25.397Z,23.92
2017-06-19T06:38:25.981Z,24.01
2017-06-19T06:39:26.565Z,23.95
2017-06-19T06:40:27.149Z,23.91
2017-06-19T06:41:27.733Z,23.65
2017-06-19T06:42:28.329Z,23.51
2017-06-19T06:43:28.912Z,23.71
2017-06-19T06:44:29.496Z,24.03
2017-06-19T06:45:30.079Z,24.23
2017-06-19T06:46:30.661Z,24.36
2017-06-19T06:47:31.246Z,24.40
2017-06-19T06:48:31.828Z,24.38
2017-06-19T06:49:32.413Z,24.60
2017-06-19T06:50:32.995Z,24.51
2017-06-19T06:51:33.577Z,23.91
2017-06-19T06:52:34.161Z,24.16
2017-06-19T06:53:34.745Z,24.54
2017-06-19T06:54:35.330Z,24.69
2017-06-19T06:55:35.914Z,24.42
2017-06-19T06:56:36.497Z,24.06
2017-06-19T06:57:37.081Z,24.42
2017-06-19T06:58:37.664Z,24.58
2017-06-19T06:59:38.247Z,24.70
2017-06-19T07:00:38.830Z,24.69
2017-06-19T07:01:39.412Z,24.69
2017-06-19T07:02:39.997Z,24.84
2017-06-19T07:03:40.581Z,24.99
2017-06-19T07:04:41.164Z,24.93
2017-06-19T07:05:41.747Z,24.74
2017-06-19T07:06:42.344Z,24.95
2017-06-19T07:07:42.926Z,25.08
2017-06-19T07:08:43.507Z,25.11
2017-06-19T07:09:44.090Z,24.96
2017-06-19T07:10:44.675Z,25.13
2017-06-19T07:11:45.257Z,25.41
2017-06-19T07:12:45.841Z,25.40
2017-06-19T07:13:46.423Z,25.58
2017-06-19T07:14:47.006Z,25.73
2017-06-19T07:15:47.591Z,25.77
2017-06-19T07:16:48.185Z,25.72
2017-06-19T07:17:48.770Z,25.28
2017-06-19T07:18:49.354Z,25.22
2017-06-19T07:19:49.937Z,25.70
2017-06-19T07:20:50.520Z,25.75
2017-06-19T07:21:51.104Z,25.99
2017-06-19T07:22:51.689Z,25.96
2017-06-19T07:23:52.283Z,25.90
2017-06-19T07:24:52.867Z,26.00
2017-06-19T07:25:53.450Z,26.09
2017-06-19T07:26:54.036Z,26.10
2017-06-19T07:27:54.618Z,25.83
2017-06-19T07:28:55.201Z,25.83
2017-06-19T07:29:55.796Z,25.78
2017-06-19T07:30:56.378Z,25.98
2017-06-19T07:31:56.962Z,26.10
2017-06-19T07:32:57.544Z,26.23
2017-06-19T07:33:58.127Z,26.40
2017-06-19T07:34:58.721Z,26.56
2017-06-19T07:35:59.307Z,26.45
2017-06-19T07:36:59.890Z,26.66
2017-06-19T07:38:00.475Z,26.66
2017-06-19T07:39:01.061Z,26.23
2017-06-19T07:40:01.641Z,25.87
2017-06-19T07:41:02.225Z,25.68
2017-06-19T07:42:02.809Z,25.58
2017-06-19T07:43:03.394Z,25.80
2017-06-19T07:44:03.977Z,26.22
2017-06-19T07:45:04.573Z,26.41
2017-06-19T07:46:05.155Z,26.60
2017-06-19T07:47:05.738Z,26.73
2017-06-19T07:48:06.322Z,26.70
2017-06-19T07:49:06.906Z,26.51
2017-06-19T07:50:07.488Z,26.56
2017-06-19T07:51:08.072Z,26.55
2017-06-19T07:52:08.655Z,26.43
2017-06-19T07:53:09.237Z,26.89
2017-06-19T07:54:09.821Z,26.97
2017-06-19T07:55:10.404Z,27.11
2017-06-19T07:56:10.988Z,27.22
2017-06-19T07:57:11.570Z,27.14
2017-06-19T07:58:12.165Z,27.08
2017-06-19T07:59:12.750Z,27.05
2017-06-19T08:00:13.346Z,26.96
2017-06-19T08:01:13.941Z,27.00
2017-06-19T08:02:14.523Z,26.90
2017-06-19T08:03:15.109Z,27.29
2017-06-19T08:04:15.691Z,27.35
2017-06-19T08:05:16.275Z,27.32
2017-06-19T08:06:16.859Z,27.39
2017-06-19T08:07:17.442Z,27.37
2017-06-19T08:08:18.030Z,27.40
2017-06-19T08:09:18.611Z,27.36
2017-06-19T08:10:19.193Z,27.15
2017-06-19T08:11:19.778Z,27.20
2017-06-19T08:12:20.364Z,27.21
2017-06-19T08:13:20.957Z,27.37
2017-06-19T08:14:21.541Z,27.47
2017-06-19T08:15:22.124Z,27.14
2017-06-19T08:16:22.707Z,27.14
2017-06-19T08:17:23.302Z,27.10
2017-06-19T08:18:23.886Z,27.27
2017-06-19T08:19:24.470Z,27.39
2017-06-19T08:20:25.054Z,27.71
2017-06-19T08:21:25.638Z,27.92
2017-06-19T08:22:26.222Z,27.95
2017-06-19T08:23:26.805Z,28.02
2017-06-19T08:24:27.389Z,27.93
2017-06-19T08:25:27.972Z,28.00
2017-06-19T08:26:28.556Z,28.19
2017-06-19T08:27:29.150Z,28.25
2017-06-19T08:28:29.736Z,28.10
2017-06-19T08:29:30.324Z,27.73
2017-06-19T08:30:30.917Z,27.96
2017-06-19T08:31:31.503Z,28.14
2017-06-19T08:32:32.085Z,27.87
2017-06-19T08:33:32.668Z,27.77
2017-06-19T08:34:33.251Z,27.68
2017-06-19T08:35:33.834Z,27.68
2017-06-19T08:36:34.421Z,27.90
2017-06-19T08:37:35.005Z,27.35
2017-06-19T08:38:35.588Z,27.49
2017-06-19T08:39:36.178Z,27.55
2017-06-19T08:40:36.754Z,27.90
2017-06-19T08:41:37.339Z,27.51
2017-06-19T08:42:37.922Z,27.90
2017-06-19T08:43:38.507Z,27.93
2017-06-19T08:44:39.092Z,28.10
2017-06-19T08:45:39.685Z,28.17
2017-06-19T08:46:40.282Z,27.93
2017-06-19T08:47:40.866Z,28.19
2017-06-19T08:48:41.449Z,28.26
2017-06-19T08:49:42.032Z,28.04
2017-06-19T08:50:42.617Z,28.38
2017-06-19T08:51:43.201Z,28.33
2017-06-19T08:52:43.785Z,28.85
2017-06-19T08:53:44.370Z,28.84
2017-06-19T08:54:44.952Z,28.59
2017-06-19T08:55:45.538Z,28.63
2017-06-19T08:56:46.120Z,28.72
2017-06-19T08:57:46.706Z,28.32
2017-06-19T08:58:47.289Z,28.17
2017-06-19T08:59:47.873Z,28.07
2017-06-19T09:00:48.469Z,28.47
2017-06-19T09:01:49.052Z,28.85
2017-06-19T09:02:49.638Z,28.86
2017-06-19T09:03:50.222Z,28.94
2017-06-19T09:04:50.811Z,28.62
2017-06-19T09:05:51.391Z,28.81
2017-06-19T09:06:51.977Z,29.07
2017-06-19T09:07:52.561Z,28.78
2017-06-19T09:08:53.144Z,28.88
2017-06-19T09:09:53.728Z,29.02
2017-06-19T09:10:54.312Z,29.20
2017-06-19T09:11:54.895Z,29.02
2017-06-19T09:12:55.479Z,28.67
2017-06-19T09:13:56.066Z,28.30
2017-06-19T09:14:56.651Z,28.32
2017-06-19T09:15:57.247Z,28.26
2017-06-19T09:16:57.832Z,28.82
2017-06-19T09:17:58.429Z,28.70
2017-06-19T09:18:59.025Z,28.64
2017-06-19T09:19:59.609Z,28.88
2017-06-19T09:21:00.194Z,28.82
2017-06-19T09:22:00.777Z,28.60
2017-06-19T09:23:01.360Z,28.33
2017-06-19T09:24:01.946Z,28.04
2017-06-19T09:25:02.530Z,28.15
2017-06-19T09:26:03.115Z,28.74
2017-06-19T09:27:03.698Z,28.74
2017-06-19T09:28:04.283Z,29.17
2017-06-19T09:29:04.868Z,29.39
2017-06-19T09:30:05.464Z,28.84
2017-06-19T09:31:06.048Z,28.35
2017-06-19T09:32:06.634Z,28.04
2017-06-19T09:33:07.218Z,27.90
2017-06-19T09:34:07.801Z,27.80
2017-06-19T09:35:08.384Z,28.66
2017-06-19T09:36:08.970Z,29.08
2017-06-19T09:37:09.555Z,29.49
2017-06-19T09:38:10.138Z,29.59
2017-06-19T09:39:10.724Z,29.84
2017-06-19T09:40:11.306Z,29.79
2017-06-19T09:41:11.902Z,29.94
2017-06-19T09:42:12.486Z,29.73
2017-06-19T09:43:13.069Z,29.20
2017-06-19T09:44:13.654Z,29.24
2017-06-19T09:45:14.239Z,29.63
2017-06-19T09:46:14.822Z,30.00
2017-06-19T09:47:15.420Z,30.03
2017-06-19T09:48:16.005Z,29.81
2017-06-19T09:49:16.589Z,29.14
2017-06-19T09:50:17.172Z,29.42
2017-06-19T09:51:17.758Z,29.95
2017-06-19T09:52:18.344Z,29.95
2017-06-19T09:53:18.928Z,30.05
2017-06-19T09:54:19.512Z,30.03
2017-06-19T09:55:20.097Z,29.94
2017-06-19T09:56:20.683Z,29.56
2017-06-19T09:57:21.268Z,29.49
2017-06-19T09:58:21.852Z,29.95
2017-06-19T09:59:22.436Z,30.16
2017-06-19T10:00:23.020Z,30.30
2017-06-19T10:01:23.606Z,30.63
2017-06-19T10:02:24.203Z,30.54
2017-06-19T10:03:24.787Z,30.28
2017-06-19T10:04:25.373Z,30.48
2017-06-19T10:05:25.958Z,30.40
2017-06-19T10:06:26.543Z,30.51
2017-06-19T10:07:27.128Z,30.62
2017-06-19T10:08:27.714Z,30.61
2017-06-19T10:09:28.300Z,30.46
2017-06-19T10:10:28.889Z,30.40
2017-06-19T10:11:29.469Z,30.48
2017-06-19T10:12:30.054Z,29.59
2017-06-19T10:13:30.639Z,29.51
2017-06-19T10:14:31.225Z,29.34
2017-06-19T10:15:31.808Z,29.42
2017-06-19T10:16:32.394Z,29.81
2017-06-19T10:17:32.979Z,30.10
2017-06-19T10:18:33.567Z,29.82
2017-06-19T10:19:34.150Z,29.56
2017-06-19T10:20:34.739Z,29.79
2017-06-19T10:21:35.318Z,30.00
2017-06-19T10:22:35.904Z,30.48
2017-06-19T10:23:36.488Z,30.10
2017-06-19T10:24:37.075Z,29.31
2017-06-19T10:25:37.659Z,28.54
2017-06-19T10:26:38.243Z,29.02
2017-06-19T10:27:38.828Z,29.56
2017-06-19T10:28:39.414Z,30.16
2017-06-19T10:29:39.999Z,30.63
2017-06-19T10:30:40.584Z,30.59
2017-06-19T10:31:41.167Z,30.75
2017-06-19T10:32:41.753Z,30.65
2017-06-19T10:33:42.349Z,30.69
2017-06-19T10:34:42.934Z,30.80
2017-06-19T10:35:43.522Z,30.77
2017-06-19T10:36:44.104Z,30.63
2017-06-19T10:37:44.690Z,30.97
2017-06-19T10:38:45.274Z,30.61
2017-06-19T10:39:45.859Z,30.83
2017-06-19T10:40:46.446Z,30.40
2017-06-19T10:41:47.029Z,30.27
2017-06-19T10:42:47.614Z,30.23
2017-06-19T10:43:48.200Z,30.63
2017-06-19T10:44:48.786Z,29.93
2017-06-19T10:45:49.372Z,30.00
2017-06-19T10:46:49.956Z,30.28
2017-06-19T10:47:50.541Z,30.37
2017-06-19T10:48:51.125Z,30.25
2017-06-19T10:49:51.721Z,30.43
2017-06-19T10:50:52.306Z,30.57
2017-06-19T10:51:52.891Z,31.00
2017-06-19T10:52:53.475Z,30.97
2017-06-19T10:53:54.061Z,30.69
2017-06-19T10:54:54.646Z,31.15
2017-06-19T10:55:55.230Z,31.36
2017-06-19T10:56:55.814Z,30.40
2017-06-19T10:57:56.399Z,30.80
2017-06-19T10:58:56.985Z,31.20
2017-06-19T10:59:57.569Z,31.05
2017-06-19T11:00:58.154Z,30.55
2017-06-19T11:01:58.739Z,31.05
2017-06-19T11:02:59.323Z,31.09
2017-06-19T11:03:59.909Z,29.98
2017-06-19T11:05:00.494Z,29.72
2017-06-19T11:06:01.080Z,29.36
2017-06-19T11:07:01.663Z,29.44
2017-06-19T11:08:02.248Z,30.25
2017-06-19T11:09:02.834Z,30.80
2017-06-19T11:10:03.420Z,30.88
2017-06-19T11:11:04.005Z,31.09
2017-06-19T11:12:04.592Z,30.92
2017-06-19T11:13:05.176Z,30.55
2017-06-19T11:14:05.762Z,30.77
2017-06-19T11:15:06.347Z,31.36
2017-06-19T11:16:06.931Z,31.64
2017-06-19T11:17:07.528Z,31.54
2017-06-19T11:18:08.123Z,31.18
2017-06-19T11:19:08.708Z,30.73
2017-06-19T11:20:09.295Z,30.62
2017-06-19T11:21:09.878Z,30.75
2017-06-19T11:22:10.462Z,30.06
2017-06-19T11:23:11.046Z,29.75
2017-06-19T11:24:11.631Z,30.05
2017-06-19T11:25:12.218Z,30.18
2017-06-19T11:26:12.802Z,30.31
2017-06-19T11:27:13.387Z,30.47
2017-06-19T11:28:13.972Z,30.75
2017-06-19T11:29:14.556Z,29.98
2017-06-19T11:30:15.142Z,29.98
2017-06-19T11:31:15.727Z,30.28
2017-06-19T11:32:16.312Z,30.72
2017-06-19T11:33:16.898Z,31.28
2017-06-19T11:34:17.482Z,31.37
2017-06-19T11:35:18.068Z,31.03
2017-06-19T11:36:18.652Z,31.28
2017-06-19T11:37:19.239Z,31.54
2017-06-19T11:38:19.823Z,31.43
2017-06-19T11:39:20.408Z,31.65
2017-06-19T11:40:20.994Z,31.69
2017-06-19T11:41:21.580Z,31.10
2017-06-19T11:42:22.165Z,31.40
2017-06-19T11:43:22.753Z,31.80
2017-06-19T11:44:23.346Z,31.73
2017-06-19T11:45:23.933Z,32.01
2017-06-19T11:46:24.530Z,31.09
2017-06-19T11:47:25.113Z,30.77
2017-06-19T11:48:25.699Z,30.65
2017-06-19T11:49:26.283Z,31.18
2017-06-19T11:50:26.869Z,31.36
2017-06-19T11:51:27.458Z,31.33
2017-06-19T11:52:28.043Z,31.28
2017-06-19T11:53:28.627Z,30.81
2017-06-19T11:54:29.212Z,30.81
2017-06-19T11:55:29.798Z,31.20
2017-06-19T11:56:30.383Z,31.40
2017-06-19T11:57:30.970Z,31.66
2017-06-19T11:58:31.554Z,32.08
2017-06-19T11:59:32.152Z,32.37
2017-06-19T12:00:32.736Z,32.55
2017-06-19T12:01:33.321Z,32.59
2017-06-19T12:02:33.908Z,32.51
2017-06-19T12:03:34.494Z,32.65
2017-06-19T12:04:35.091Z,32.30
2017-06-19T12:05:35.676Z,32.45
2017-06-19T12:06:36.276Z,32.73
2017-06-19T12:07:36.862Z,32.75
2017-06-19T12:08:37.450Z,32.14
2017-06-19T12:09:38.035Z,30.94
2017-06-19T12:10:38.621Z,31.39
2017-06-19T12:11:39.210Z,32.11
2017-06-19T12:12:39.796Z,31.43
2017-06-19T12:13:40.382Z,31.25
2017-06-19T12:14:40.969Z,31.58
2017-06-19T12:15:41.568Z,32.12
2017-06-19T12:16:42.154Z,32.51
2017-06-19T12:17:42.741Z,32.51
2017-06-19T12:18:43.327Z,31.33
2017-06-19T12:19:43.914Z,30.90
2017-06-19T12:20:44.500Z,30.70
2017-06-19T12:21:45.088Z,30.63
2017-06-19T12:22:45.676Z,30.85
2017-06-19T12:23:46.262Z,31.37
2017-06-19T12:24:46.849Z,31.74
2017-06-19T12:25:47.436Z,32.37
2017-06-19T12:26:48.023Z,32.59
2017-06-19T12:27:48.615Z,32.77
2017-06-19T12:28:49.210Z,32.71
2017-06-19T12:29:49.796Z,32.82
2017-06-19T12:30:50.382Z,32.90
2017-06-19T12:31:50.971Z,32.77
2017-06-19T12:32:51.557Z,32.64
2017-06-19T12:33:52.144Z,32.64
2017-06-19T12:34:52.730Z,32.71
2017-06-19T12:35:53.317Z,32.19
2017-06-19T12:36:53.905Z,31.64
2017-06-19T12:37:54.491Z,31.37
2017-06-19T12:38:55.077Z,31.17
2017-06-19T12:39:55.665Z,31.66
2017-06-19T12:40:56.253Z,31.71
2017-06-19T12:41:56.839Z,31.96
2017-06-19T12:42:57.425Z,32.34
2017-06-19T12:43:58.012Z,32.26
2017-06-19T12:44:58.610Z,32.63
2017-06-19T12:45:59.198Z,33.00
2017-06-19T12:46:59.785Z,33.12
2017-06-19T12:48:00.372Z,32.92
2017-06-19T12:49:00.957Z,32.77
2017-06-19T12:50:01.546Z,32.78
2017-06-19T12:51:02.135Z,32.89
2017-06-19T12:52:02.720Z,32.03
2017-06-19T12:53:03.306Z,32.30
2017-06-19T12:54:03.891Z,32.33
2017-06-19T12:55:04.479Z,31.76
2017-06-19T12:56:05.067Z,31.31
2017-06-19T12:57:05.653Z,31.99
2017-06-19T12:58:06.241Z,31.64
2017-06-19T12:59:06.837Z,31.69
2017-06-19T13:00:07.424Z,32.03